New Berlin, Illinois
Current Conditions -  °F | °C
As of 8:52 AM on Saturday 22 Nov 2014 (Local Time) from KSPI Reporting Station
Broken Clouds Broken Clouds  
Wind Chill: 42°   Ceiling: 3500
Heat Index: 49°   Visibility: 10mi
Dew Point: 41°   Wind: 20mph
Humidity: 74%   Direction: 190°S
Pressure: 30.06"   Gusts: NA
Location:  39.73°N, 89.91°W
Report Text: KSPI 221452Z 19017KT 10SM SCT031 BKN035 BKN085 09/05 A3006 RMK AO2 SLP181 T00940050 58012
Loading
Personal Weather Stations






























Interactive Weather Map New forecast layout! Learn more

10-Day Weather Forecast

Advertisements
Track Severe Weather on mobile